createdAt,value
2017-12-03T00:00:36.051Z,21.13
2017-12-03T00:03:02.425Z,17.40
2017-12-03T00:05:28.921Z,22.80
2017-12-03T00:07:55.969Z,21.27
2017-12-03T00:10:22.529Z,23.70
2017-12-03T00:12:48.941Z,22.30
2017-12-03T00:15:15.380Z,25.00
2017-12-03T00:17:41.811Z,23.27
2017-12-03T00:20:08.244Z,27.10
2017-12-03T00:22:34.722Z,28.70
2017-12-03T00:25:01.836Z,26.07
2017-12-03T00:27:28.320Z,24.13
2017-12-03T00:29:54.781Z,27.17
2017-12-03T00:32:21.222Z,26.40
2017-12-03T00:34:47.608Z,26.77
2017-12-03T00:37:13.937Z,27.03
2017-12-03T00:39:40.337Z,22.77
2017-12-03T00:42:07.487Z,26.93
2017-12-03T00:44:33.927Z,27.30
2017-12-03T00:47:00.357Z,29.70
2017-12-03T00:49:26.792Z,27.30
2017-12-03T00:51:53.229Z,25.07
2017-12-03T00:54:19.627Z,35.90
2017-12-03T00:56:46.098Z,32.53
2017-12-03T00:59:13.248Z,27.20
2017-12-03T01:01:39.622Z,23.47
2017-12-03T01:04:06.014Z,22.23
2017-12-03T01:06:32.439Z,22.63
2017-12-03T01:08:58.884Z,28.70
2017-12-03T01:11:25.318Z,26.97
2017-12-03T01:13:51.753Z,26.50
2017-12-03T01:16:18.838Z,25.70
2017-12-03T01:18:45.199Z,29.67
2017-12-03T01:21:11.641Z,36.77
2017-12-03T01:23:38.086Z,45.43
2017-12-03T01:26:04.527Z,30.20
2017-12-03T01:28:30.974Z,29.83
2017-12-03T01:30:57.410Z,28.00
2017-12-03T01:33:24.494Z,26.67
2017-12-03T01:35:50.894Z,26.03
2017-12-03T01:38:17.224Z,29.23
2017-12-03T01:40:43.663Z,22.63
2017-12-03T01:43:10.096Z,19.97
2017-12-03T01:45:36.529Z,19.70
2017-12-03T01:48:02.964Z,21.80
2017-12-03T01:50:30.114Z,22.40
2017-12-03T01:52:56.552Z,20.57
2017-12-03T01:55:22.984Z,19.23
2017-12-03T01:57:49.418Z,17.93
2017-12-03T02:00:15.854Z,14.87
2017-12-03T02:02:42.288Z,21.30
2017-12-03T02:05:08.827Z,17.97
2017-12-03T02:07:35.873Z,19.27
2017-12-03T02:10:02.328Z,18.60
2017-12-03T02:12:28.763Z,19.43
2017-12-03T02:14:55.178Z,20.77
2017-12-03T02:17:21.715Z,23.40
2017-12-03T02:19:48.050Z,34.10
2017-12-03T02:22:14.481Z,22.13
2017-12-03T02:24:41.718Z,19.60
2017-12-03T02:27:08.068Z,27.60
2017-12-03T02:29:34.504Z,25.07
2017-12-03T02:32:00.937Z,29.67
2017-12-03T02:34:27.372Z,37.40
2017-12-03T02:36:53.808Z,23.60
2017-12-03T02:39:20.146Z,61.73
2017-12-03T02:41:47.485Z,59.40
2017-12-03T02:44:13.931Z,114.17
2017-12-03T02:46:40.365Z,125.10
2017-12-03T02:49:06.797Z,212.10
2017-12-03T02:51:33.171Z,104.80
2017-12-03T02:53:59.645Z,66.13
2017-12-03T02:56:26.037Z,89.93
2017-12-03T02:58:53.254Z,188.17
2017-12-03T03:01:19.689Z,102.37
2017-12-03T03:03:46.129Z,82.13
2017-12-03T03:06:12.556Z,67.90
2017-12-03T03:08:38.992Z,32.17
2017-12-03T03:11:05.328Z,31.13
2017-12-03T03:13:31.759Z,33.83
2017-12-03T03:15:58.919Z,82.37
2017-12-03T03:18:25.345Z,92.97
2017-12-03T03:20:51.781Z,51.73
2017-12-03T03:23:18.215Z,82.90
2017-12-03T03:25:44.649Z,45.87
2017-12-03T03:28:11.021Z,39.50
2017-12-03T03:30:37.417Z,47.60
2017-12-03T03:33:04.545Z,36.10
2017-12-03T03:35:30.987Z,34.77
2017-12-03T03:37:57.370Z,25.50
2017-12-03T03:40:23.749Z,31.93
2017-12-03T03:42:50.101Z,21.97
2017-12-03T03:45:16.535Z,20.30
2017-12-03T03:47:42.867Z,21.13
2017-12-03T03:50:10.121Z,22.43
2017-12-03T03:52:36.556Z,21.67
2017-12-03T03:55:02.930Z,20.20
2017-12-03T03:57:29.322Z,21.07
2017-12-03T03:59:55.759Z,15.33
2017-12-03T04:02:22.090Z,17.70
2017-12-03T04:04:48.524Z,18.53
2017-12-03T04:07:15.676Z,19.47
2017-12-03T04:09:42.047Z,18.63
2017-12-03T04:12:08.441Z,17.70
2017-12-03T04:14:34.877Z,16.60
2017-12-03T04:17:01.312Z,14.87
2017-12-03T04:19:27.763Z,13.97
2017-12-03T04:21:54.066Z,15.33
2017-12-03T04:24:20.512Z,16.53
2017-12-03T04:26:46.947Z,14.73
2017-12-03T04:29:13.382Z,19.13
2017-12-03T04:31:39.754Z,20.57
2017-12-03T04:34:06.149Z,19.90
2017-12-03T04:36:32.481Z,16.20
2017-12-03T04:38:58.917Z,18.13
2017-12-03T04:41:26.067Z,21.20
2017-12-03T04:43:52.501Z,22.63
2017-12-03T04:46:18.871Z,30.60
2017-12-03T04:48:45.374Z,21.00
2017-12-03T04:51:11.805Z,14.80
2017-12-03T04:53:38.241Z,17.63
2017-12-03T04:56:04.614Z,16.27
2017-12-03T04:58:31.763Z,19.90
2017-12-03T05:00:58.158Z,16.47
2017-12-03T05:03:24.593Z,14.60
2017-12-03T05:05:51.026Z,17.23
2017-12-03T05:08:17.394Z,20.03
2017-12-03T05:10:43.794Z,27.80
2017-12-03T05:13:10.228Z,19.80
2017-12-03T05:15:37.382Z,18.03
2017-12-03T05:18:03.815Z,14.70
2017-12-03T05:20:30.252Z,14.90
2017-12-03T05:22:56.767Z,13.10
2017-12-03T05:25:23.223Z,223.93
2017-12-03T05:27:49.553Z,398.37
2017-12-03T05:30:15.885Z,211.60
2017-12-03T05:32:43.139Z,167.03
2017-12-03T05:35:09.578Z,226.87
2017-12-03T05:37:36.011Z,244.83
2017-12-03T05:40:02.445Z,162.93
2017-12-03T05:42:28.983Z,293.17
2017-12-03T05:44:55.314Z,173.37
2017-12-03T05:47:21.747Z,71.20
2017-12-03T05:49:48.899Z,40.63
2017-12-03T05:52:15.333Z,30.07
2017-12-03T05:54:41.740Z,19.83
2017-12-03T05:57:08.100Z,25.63
2017-12-03T05:59:34.534Z,17.93
2017-12-03T06:02:00.970Z,53.90
2017-12-03T06:04:27.337Z,45.63
2017-12-03T06:06:54.657Z,28.20
2017-12-03T06:09:20.990Z,28.60
2017-12-03T06:11:47.317Z,23.40
2017-12-03T06:14:13.757Z,23.63
2017-12-03T06:16:40.089Z,18.80
2017-12-03T06:19:06.524Z,25.63
2017-12-03T06:21:32.958Z,18.87
2017-12-03T06:24:00.129Z,19.27
2017-12-03T06:26:26.563Z,14.40
2017-12-03T06:28:52.981Z,22.00
2017-12-03T06:31:19.299Z,55.80
2017-12-03T06:33:45.748Z,48.87
2017-12-03T06:36:12.182Z,54.33
2017-12-03T06:38:38.615Z,47.63
2017-12-03T06:41:05.870Z,58.63
2017-12-03T06:43:32.323Z,40.50
2017-12-03T06:45:58.840Z,52.47
2017-12-03T06:48:25.205Z,86.10
2017-12-03T06:50:51.607Z,73.60
2017-12-03T06:53:17.973Z,120.77
2017-12-03T06:55:44.346Z,53.17
2017-12-03T06:58:11.512Z,45.77
2017-12-03T07:00:37.960Z,64.90
2017-12-03T07:03:04.394Z,35.53
2017-12-03T07:05:30.829Z,38.57
2017-12-03T07:07:57.264Z,48.43
2017-12-03T07:10:23.600Z,47.40
2017-12-03T07:12:50.031Z,43.23
2017-12-03T07:15:17.285Z,46.30
2017-12-03T07:17:43.720Z,43.60
2017-12-03T07:20:10.052Z,53.07
2017-12-03T07:22:36.486Z,46.77
2017-12-03T07:25:02.818Z,44.87
2017-12-03T07:27:29.357Z,59.10
2017-12-03T07:29:55.790Z,48.73
2017-12-03T07:32:22.944Z,47.57
2017-12-03T07:34:49.377Z,51.70
2017-12-03T07:37:15.913Z,50.47
2017-12-03T07:39:42.350Z,47.10
2017-12-03T07:42:08.782Z,44.07
2017-12-03T07:44:35.217Z,46.37
2017-12-03T07:47:01.652Z,46.60
2017-12-03T07:49:28.803Z,43.97
2017-12-03T07:51:55.237Z,32.80
2017-12-03T07:54:21.672Z,28.87
2017-12-03T07:56:48.106Z,23.60
2017-12-03T07:59:14.643Z,21.60
2017-12-03T08:01:41.078Z,24.87
2017-12-03T08:04:07.514Z,91.50
2017-12-03T08:06:34.561Z,144.50
2017-12-03T08:09:00.997Z,161.07
2017-12-03T08:11:27.366Z,28.77
2017-12-03T08:13:53.764Z,87.50
2017-12-03T08:16:20.301Z,29.83
2017-12-03T08:18:46.736Z,24.00
2017-12-03T08:21:13.188Z,27.00
2017-12-03T08:23:40.315Z,71.83
2017-12-03T08:26:06.756Z,129.47
2017-12-03T08:28:33.089Z,91.70
2017-12-03T08:30:59.523Z,31.10
2017-12-03T08:33:25.961Z,32.10
2017-12-03T08:35:52.392Z,31.07
2017-12-03T08:38:18.826Z,29.60
2017-12-03T08:40:46.083Z,33.87
2017-12-03T08:43:12.519Z,35.20
2017-12-03T08:45:38.949Z,34.30
2017-12-03T08:48:05.385Z,32.63
2017-12-03T08:50:31.819Z,31.50
2017-12-03T08:52:58.254Z,36.17
2017-12-03T08:55:24.687Z,33.67
2017-12-03T08:57:51.840Z,37.33
2017-12-03T09:00:18.273Z,33.27
2017-12-03T09:02:44.747Z,33.70
2017-12-03T09:05:11.144Z,34.27
2017-12-03T09:07:37.578Z,27.50
2017-12-03T09:10:04.013Z,30.03
2017-12-03T09:12:30.380Z,22.57
2017-12-03T09:14:57.643Z,21.43
2017-12-03T09:17:24.034Z,19.30
2017-12-03T09:19:50.468Z,19.50
2017-12-03T09:22:16.904Z,19.40
2017-12-03T09:24:43.337Z,14.03
2017-12-03T09:27:09.772Z,23.63
2017-12-03T09:29:36.313Z,20.37
2017-12-03T09:32:03.325Z,19.10
2017-12-03T09:34:29.794Z,18.90
2017-12-03T09:36:56.227Z,21.87
2017-12-03T09:39:22.668Z,22.83
2017-12-03T09:41:49.096Z,20.57
2017-12-03T09:44:15.531Z,23.33
2017-12-03T09:46:41.966Z,20.53
2017-12-03T09:49:09.119Z,13.17
2017-12-03T09:51:35.555Z,24.43
2017-12-03T09:54:01.987Z,15.67
2017-12-03T09:56:28.349Z,10.37
2017-12-03T09:58:54.855Z,22.97
2017-12-03T10:01:21.290Z,30.80
2017-12-03T10:03:47.728Z,28.93
2017-12-03T10:06:14.773Z,22.67
2017-12-03T10:08:41.138Z,19.50
2017-12-03T10:11:07.541Z,15.93
2017-12-03T10:13:33.995Z,19.27
2017-12-03T10:16:00.409Z,15.00
2017-12-03T10:18:26.741Z,12.47
2017-12-03T10:20:53.178Z,12.93
2017-12-03T10:23:20.268Z,14.20
2017-12-03T10:25:46.660Z,7.97
2017-12-03T10:28:13.095Z,19.60
2017-12-03T10:30:39.507Z,13.77
2017-12-03T10:33:05.863Z,16.60
2017-12-03T10:35:32.399Z,17.67
2017-12-03T10:37:58.935Z,15.93
2017-12-03T10:40:26.074Z,18.37
2017-12-03T10:42:52.524Z,16.07
2017-12-03T10:45:18.960Z,15.50
2017-12-03T10:47:45.330Z,12.57
2017-12-03T10:50:11.667Z,13.00
2017-12-03T10:52:38.057Z,15.30
2017-12-03T10:55:04.422Z,16.70
2017-12-03T10:57:31.743Z,14.70
2017-12-03T10:59:58.076Z,12.47
2017-12-03T11:02:24.512Z,13.80
2017-12-03T11:04:50.945Z,15.10
2017-12-03T11:07:17.317Z,15.60
2017-12-03T11:09:43.715Z,14.53
2017-12-03T11:12:10.044Z,17.17
2017-12-03T11:14:37.321Z,18.17
2017-12-03T11:17:03.732Z,12.43
2017-12-03T11:19:30.040Z,14.80
2017-12-03T11:21:56.499Z,15.73
2017-12-03T11:24:22.934Z,12.93
2017-12-03T11:26:49.369Z,16.00
2017-12-03T11:29:15.803Z,16.40
2017-12-03T11:31:42.989Z,13.13
2017-12-03T11:34:09.412Z,17.47
2017-12-03T11:36:35.721Z,13.67
2017-12-03T11:39:02.033Z,16.50
2017-12-03T11:41:28.490Z,17.67
2017-12-03T11:43:54.924Z,14.83
2017-12-03T11:46:21.360Z,19.90
2017-12-03T11:48:48.510Z,18.63
2017-12-03T11:51:14.877Z,17.57
2017-12-03T11:53:41.205Z,14.23
2017-12-03T11:56:07.581Z,13.47
2017-12-03T11:58:34.022Z,13.43
2017-12-03T12:01:00.478Z,14.07
2017-12-03T12:03:26.911Z,13.30
2017-12-03T12:05:53.961Z,12.47
2017-12-03T12:08:20.396Z,12.63
2017-12-03T12:10:46.831Z,12.53
2017-12-03T12:13:13.194Z,12.17
2017-12-03T12:15:39.596Z,11.53
2017-12-03T12:18:06.031Z,9.87
2017-12-03T12:20:32.467Z,12.83
2017-12-03T12:22:59.516Z,13.70
2017-12-03T12:25:25.934Z,11.27
2017-12-03T12:27:52.318Z,12.97
2017-12-03T12:30:18.818Z,16.03
2017-12-03T12:32:45.253Z,16.87
2017-12-03T12:35:11.689Z,26.10
2017-12-03T12:37:38.022Z,18.00
2017-12-03T12:40:05.275Z,19.00
2017-12-03T12:42:31.708Z,20.33
2017-12-03T12:44:58.069Z,18.70
2017-12-03T12:47:24.477Z,19.60
2017-12-03T12:49:50.807Z,17.40
2017-12-03T12:52:17.243Z,23.40
2017-12-03T12:54:43.677Z,37.63
2017-12-03T12:57:10.809Z,24.27
2017-12-03T12:59:37.250Z,24.90
2017-12-03T13:02:03.595Z,21.20
2017-12-03T13:04:29.965Z,22.00
2017-12-03T13:06:56.466Z,19.37
2017-12-03T13:09:22.899Z,19.43
2017-12-03T13:11:49.334Z,16.20
2017-12-03T13:14:16.485Z,17.80
2017-12-03T13:16:42.920Z,18.90
2017-12-03T13:19:09.285Z,19.23
2017-12-03T13:21:35.685Z,20.50
2017-12-03T13:24:02.014Z,21.80
2017-12-03T13:26:28.453Z,20.30
2017-12-03T13:28:54.889Z,27.27
2017-12-03T13:31:22.041Z,25.43
2017-12-03T13:33:48.576Z,33.10
2017-12-03T13:36:14.984Z,31.10
2017-12-03T13:38:41.393Z,35.20
2017-12-03T13:41:07.743Z,36.27
2017-12-03T13:43:34.213Z,35.50
2017-12-03T13:46:00.648Z,39.07
2017-12-03T13:48:27.901Z,36.47
2017-12-03T13:50:54.335Z,38.10
2017-12-03T13:53:20.770Z,27.20
2017-12-03T13:55:47.102Z,28.60
2017-12-03T13:58:13.514Z,31.97
2017-12-03T14:00:39.971Z,29.60
2017-12-03T14:03:06.406Z,28.97
2017-12-03T14:05:33.540Z,30.50
2017-12-03T14:07:59.992Z,33.40
2017-12-03T14:10:26.361Z,33.80
2017-12-03T14:12:52.693Z,35.40
2017-12-03T14:15:19.090Z,42.60
2017-12-03T14:17:45.425Z,37.57
2017-12-03T14:20:11.857Z,49.40
2017-12-03T14:22:39.009Z,63.03
2017-12-03T14:25:05.377Z,63.10
2017-12-03T14:27:31.878Z,65.37
2017-12-03T14:29:58.313Z,62.00
2017-12-03T14:32:24.750Z,54.77
2017-12-03T14:34:51.183Z,51.20
2017-12-03T14:37:17.553Z,45.30
2017-12-03T14:39:44.769Z,48.10
2017-12-03T14:42:11.204Z,47.83
2017-12-03T14:44:37.538Z,44.87
2017-12-03T14:47:03.972Z,54.00
2017-12-03T14:49:30.405Z,47.47
2017-12-03T14:51:56.839Z,55.80
2017-12-03T14:54:23.274Z,56.17
2017-12-03T14:56:50.502Z,59.77
2017-12-03T14:59:17.010Z,58.90
2017-12-03T15:01:43.402Z,59.60
2017-12-03T15:04:09.934Z,60.77
2017-12-03T15:06:36.368Z,59.40
2017-12-03T15:09:02.803Z,59.53
2017-12-03T15:11:29.240Z,56.20
2017-12-03T15:13:56.491Z,63.20
2017-12-03T15:16:22.929Z,73.20
2017-12-03T15:18:49.361Z,72.70
2017-12-03T15:21:15.796Z,68.97
2017-12-03T15:23:42.128Z,69.90
2017-12-03T15:26:08.562Z,72.47
2017-12-03T15:28:35.001Z,76.80
2017-12-03T15:31:02.148Z,64.23
2017-12-03T15:33:28.582Z,45.90
2017-12-03T15:35:55.020Z,49.23
2017-12-03T15:38:21.380Z,40.53
2017-12-03T15:40:47.786Z,35.73
2017-12-03T15:43:14.220Z,37.40
2017-12-03T15:45:40.653Z,46.07
2017-12-03T15:48:07.846Z,37.90
2017-12-03T15:50:34.255Z,38.73
2017-12-03T15:53:00.719Z,34.60
2017-12-03T15:55:27.214Z,35.53
2017-12-03T15:57:53.650Z,33.63
2017-12-03T16:00:20.084Z,35.80
2017-12-03T16:02:46.517Z,40.07
2017-12-03T16:05:13.705Z,42.03
2017-12-03T16:07:40.102Z,62.03
2017-12-03T16:10:06.419Z,51.20
2017-12-03T16:12:32.868Z,54.67
2017-12-03T16:14:59.303Z,43.90
2017-12-03T16:17:25.737Z,35.67
2017-12-03T16:19:52.275Z,36.70
2017-12-03T16:22:19.221Z,37.50
2017-12-03T16:24:45.657Z,38.40
2017-12-03T16:27:12.090Z,45.33
2017-12-03T16:29:38.525Z,44.43
2017-12-03T16:32:04.960Z,44.60
2017-12-03T16:34:31.356Z,52.90
2017-12-03T16:36:57.828Z,46.37
2017-12-03T16:39:24.881Z,42.40
2017-12-03T16:41:51.312Z,42.83
2017-12-03T16:44:17.747Z,42.77
2017-12-03T16:46:44.182Z,59.93
2017-12-03T16:49:10.595Z,46.87
2017-12-03T16:51:37.052Z,40.60
2017-12-03T16:54:03.487Z,37.00
2017-12-03T16:56:30.537Z,37.53
2017-12-03T16:58:56.970Z,45.27
2017-12-03T17:01:23.339Z,47.30
2017-12-03T17:03:49.697Z,49.93
2017-12-03T17:06:16.090Z,38.50
2017-12-03T17:08:42.504Z,35.97
2017-12-03T17:11:08.938Z,36.60
2017-12-03T17:13:36.093Z,27.33
2017-12-03T17:16:02.524Z,24.03
2017-12-03T17:18:28.892Z,25.33
2017-12-03T17:20:55.291Z,31.33
2017-12-03T17:23:21.725Z,35.20
2017-12-03T17:25:48.263Z,27.60
2017-12-03T17:28:14.744Z,23.73
2017-12-03T17:30:41.935Z,21.97
2017-12-03T17:33:08.385Z,18.60
2017-12-03T17:35:34.717Z,22.40
2017-12-03T17:38:01.152Z,21.57
2017-12-03T17:40:27.521Z,23.00
2017-12-03T17:42:53.845Z,22.77
2017-12-03T17:45:20.238Z,21.10
2017-12-03T17:47:47.481Z,23.30
2017-12-03T17:50:13.837Z,25.57
2017-12-03T17:52:40.290Z,27.43
2017-12-03T17:55:06.705Z,22.73
2017-12-03T17:57:33.101Z,22.50
2017-12-03T17:59:59.527Z,22.10
2017-12-03T18:02:25.907Z,21.80
2017-12-03T18:04:53.163Z,18.13
2017-12-03T18:07:19.596Z,16.23
2017-12-03T18:09:46.046Z,20.27
2017-12-03T18:12:12.571Z,17.57
2017-12-03T18:14:39.003Z,18.20
2017-12-03T18:17:05.369Z,16.57
2017-12-03T18:19:31.768Z,18.77
2017-12-03T18:21:59.023Z,21.67
2017-12-03T18:24:25.357Z,23.37
2017-12-03T18:26:51.791Z,22.40
2017-12-03T18:29:18.250Z,20.90
2017-12-03T18:31:44.638Z,17.63
2017-12-03T18:34:11.078Z,20.50
2017-12-03T18:36:37.528Z,18.70
2017-12-03T18:39:04.679Z,25.13
2017-12-03T18:41:31.046Z,21.30
2017-12-03T18:43:57.382Z,21.43
2017-12-03T18:46:23.784Z,25.83
2017-12-03T18:48:50.214Z,21.60
2017-12-03T18:51:16.647Z,22.07
2017-12-03T18:53:43.083Z,24.63
2017-12-03T18:56:10.376Z,20.17
2017-12-03T18:58:36.771Z,22.40
2017-12-03T19:01:03.206Z,18.00
2017-12-03T19:03:29.640Z,16.87
2017-12-03T19:05:56.092Z,19.80
2017-12-03T19:08:22.509Z,17.40
2017-12-03T19:10:48.944Z,19.87
2017-12-03T19:13:16.112Z,18.70
2017-12-03T19:15:42.530Z,21.43
2017-12-03T19:18:08.967Z,17.60
2017-12-03T19:20:35.401Z,18.30
2017-12-03T19:23:01.840Z,15.33
2017-12-03T19:25:28.283Z,19.00
2017-12-03T19:27:54.708Z,14.63
2017-12-03T19:30:21.854Z,15.83
2017-12-03T19:32:48.288Z,20.13
2017-12-03T19:35:14.707Z,19.40
2017-12-03T19:37:41.158Z,18.43
2017-12-03T19:40:07.593Z,15.97
2017-12-03T19:42:34.027Z,19.97
2017-12-03T19:45:00.564Z,20.33
2017-12-03T19:47:27.714Z,26.07
2017-12-03T19:49:54.023Z,25.13
2017-12-03T19:52:20.504Z,24.20
2017-12-03T19:54:46.917Z,23.63
2017-12-03T19:57:13.309Z,21.23
2017-12-03T19:59:39.718Z,20.77
2017-12-03T20:02:06.225Z,21.23
2017-12-03T20:04:33.373Z,17.37
2017-12-03T20:06:59.706Z,22.80
2017-12-03T20:09:26.048Z,26.10
2017-12-03T20:11:52.525Z,21.33
2017-12-03T20:14:18.906Z,21.17
2017-12-03T20:16:45.343Z,20.87
2017-12-03T20:19:11.803Z,20.00
2017-12-03T20:21:39.029Z,20.50
2017-12-03T20:24:05.463Z,24.40
2017-12-03T20:26:31.840Z,18.10
2017-12-03T20:28:58.333Z,17.40
2017-12-03T20:31:24.768Z,22.17
2017-12-03T20:33:51.204Z,18.13
2017-12-03T20:36:17.639Z,19.30
2017-12-03T20:38:44.914Z,17.73
2017-12-03T20:41:11.326Z,16.23
2017-12-03T20:43:37.700Z,19.17
2017-12-03T20:46:04.097Z,18.97
2017-12-03T20:48:30.462Z,20.90
2017-12-03T20:50:56.808Z,18.30
2017-12-03T20:53:23.182Z,27.00
2017-12-03T20:55:50.345Z,21.00
2017-12-03T20:58:16.861Z,22.00
2017-12-03T21:00:43.303Z,18.00
2017-12-03T21:03:09.748Z,18.87
2017-12-03T21:05:36.184Z,19.97
2017-12-03T21:08:02.617Z,16.80
2017-12-03T21:10:29.154Z,15.23
2017-12-03T21:12:56.204Z,16.87
2017-12-03T21:15:22.740Z,16.93
2017-12-03T21:17:49.072Z,16.13
2017-12-03T21:20:15.507Z,15.27
2017-12-03T21:22:41.942Z,17.10
2017-12-03T21:25:08.479Z,17.57
2017-12-03T21:27:34.936Z,17.97
2017-12-03T21:30:02.066Z,17.63
2017-12-03T21:32:28.499Z,18.00
2017-12-03T21:34:54.821Z,18.13
2017-12-03T21:37:21.267Z,15.50
2017-12-03T21:39:47.701Z,16.90
2017-12-03T21:42:14.034Z,14.73
2017-12-03T21:44:40.487Z,21.43
2017-12-03T21:47:07.722Z,18.27
2017-12-03T21:49:34.157Z,17.60
2017-12-03T21:52:00.631Z,16.67
2017-12-03T21:54:27.006Z,12.50
2017-12-03T21:56:53.460Z,13.43
2017-12-03T21:59:19.895Z,11.03
2017-12-03T22:01:46.331Z,15.87
2017-12-03T22:04:13.584Z,10.50
2017-12-03T22:06:40.041Z,12.50
2017-12-03T22:09:06.452Z,17.10
2017-12-03T22:11:32.886Z,12.70
2017-12-03T22:13:59.323Z,14.43
2017-12-03T22:16:25.757Z,13.70
2017-12-03T22:18:52.190Z,13.53
2017-12-03T22:21:19.467Z,13.27
2017-12-03T22:23:45.898Z,8.63
2017-12-03T22:26:12.337Z,11.20
2017-12-03T22:28:38.749Z,13.27
2017-12-03T22:31:05.120Z,10.60
2017-12-03T22:33:31.535Z,11.57
2017-12-03T22:35:57.951Z,15.13
2017-12-03T22:38:25.203Z,13.13
2017-12-03T22:40:51.626Z,12.17
2017-12-03T22:43:18.073Z,13.73
2017-12-03T22:45:44.487Z,12.13
2017-12-03T22:48:10.873Z,9.60
2017-12-03T22:50:37.181Z,12.27
2017-12-03T22:53:03.607Z,11.77
2017-12-03T22:55:30.658Z,13.13
2017-12-03T22:57:57.090Z,13.87
2017-12-03T23:00:23.497Z,12.23
2017-12-03T23:02:49.981Z,13.17
2017-12-03T23:05:16.429Z,12.10
2017-12-03T23:07:42.791Z,12.27
2017-12-03T23:10:09.197Z,16.87
2017-12-03T23:12:36.314Z,14.87
2017-12-03T23:15:02.747Z,13.87
2017-12-03T23:17:29.182Z,16.20
2017-12-03T23:19:55.618Z,14.33
2017-12-03T23:22:22.070Z,13.20
2017-12-03T23:24:48.486Z,12.93
2017-12-03T23:27:14.920Z,12.07
2017-12-03T23:29:42.046Z,13.77
2017-12-03T23:32:08.404Z,16.17
2017-12-03T23:34:34.857Z,12.70
2017-12-03T23:37:01.272Z,12.70
2017-12-03T23:39:27.646Z,13.07
2017-12-03T23:41:54.040Z,10.30
2017-12-03T23:44:20.474Z,12.50
2017-12-03T23:46:47.626Z,12.33
2017-12-03T23:49:14.002Z,11.60
2017-12-03T23:51:40.392Z,12.03
2017-12-03T23:54:06.828Z,13.90
2017-12-03T23:56:33.262Z,10.90
2017-12-03T23:58:59.696Z,13.47
